METAR Data
IDs: Format: Raw Decoded Include TAF

Data at: 0310 UTC 10 Dec 2022

METAR for:KI69 (Batavia/Clermont Cnt, OH, US)
Text:KI69 100255Z AUTO 00000KT 7SM BKN005 BKN012 OVC035 08/07 A3014 RMK AO2 T00760067
Temperature: 7.6°C ( 46°F)
Dewpoint: 6.7°C ( 44°F) [RH = 94%]
Pressure (altimeter):30.14 inches Hg (1020.7 mb)
Winds:calm
Visibility: 7 sm ( 11 km)
Ceiling:500 feet AGL
Clouds: broken clouds at 500 feet AGL, broken clouds at 1200 feet AGL, overcast cloud deck at 3500 feet AGL
QC Flag:automated observation with no human augmentation